sensor_id;sensor_type;location;lat;lon;timestamp;P1;durP1;ratioP1;P2;durP2;ratioP2
78648;SDS011;67962;47.310;9.642;2023-06-22T00:00:52;12.60;;;3.40;;
78648;SDS011;67962;47.310;9.642;2023-06-22T00:03:19;9.95;;;4.03;;
78648;SDS011;67962;47.310;9.642;2023-06-22T00:05:46;9.00;;;3.55;;
78648;SDS011;67962;47.310;9.642;2023-06-22T00:08:13;9.52;;;3.47;;
78648;SDS011;67962;47.310;9.642;2023-06-22T00:10:39;8.07;;;3.53;;
78648;SDS011;67962;47.310;9.642;2023-06-22T00:13:06;9.70;;;3.75;;
78648;SDS011;67962;47.310;9.642;2023-06-22T00:15:32;9.00;;;3.22;;
78648;SDS011;67962;47.310;9.642;2023-06-22T00:17:58;10.10;;;3.30;;
78648;SDS011;67962;47.310;9.642;2023-06-22T00:20:24;11.18;;;3.85;;
78648;SDS011;67962;47.310;9.642;2023-06-22T00:22:54;8.98;;;3.03;;
78648;SDS011;67962;47.310;9.642;2023-06-22T00:25:20;8.05;;;4.10;;
78648;SDS011;67962;47.310;9.642;2023-06-22T00:27:46;11.85;;;3.80;;
78648;SDS011;67962;47.310;9.642;2023-06-22T00:30:12;8.75;;;3.78;;
78648;SDS011;67962;47.310;9.642;2023-06-22T00:32:38;7.13;;;3.35;;
78648;SDS011;67962;47.310;9.642;2023-06-22T00:35:04;7.85;;;3.47;;
78648;SDS011;67962;47.310;9.642;2023-06-22T00:37:30;11.10;;;3.45;;
78648;SDS011;67962;47.310;9.642;2023-06-22T00:39:56;10.90;;;3.97;;
78648;SDS011;67962;47.310;9.642;2023-06-22T00:42:22;9.35;;;4.13;;
78648;SDS011;67962;47.310;9.642;2023-06-22T00:44:47;14.88;;;3.75;;
78648;SDS011;67962;47.310;9.642;2023-06-22T00:47:14;9.90;;;3.95;;
78648;SDS011;67962;47.310;9.642;2023-06-22T00:49:42;12.60;;;3.60;;
78648;SDS011;67962;47.310;9.642;2023-06-22T00:52:08;6.28;;;3.55;;
78648;SDS011;67962;47.310;9.642;2023-06-22T00:54:41;14.15;;;3.60;;
78648;SDS011;67962;47.310;9.642;2023-06-22T00:57:11;9.75;;;3.15;;
78648;SDS011;67962;47.310;9.642;2023-06-22T00:59:42;8.80;;;3.40;;
78648;SDS011;67962;47.310;9.642;2023-06-22T01:02:09;10.88;;;3.83;;
78648;SDS011;67962;47.310;9.642;2023-06-22T01:04:35;8.25;;;3.58;;
78648;SDS011;67962;47.310;9.642;2023-06-22T01:07:10;7.68;;;3.35;;
78648;SDS011;67962;47.310;9.642;2023-06-22T01:12:40;11.90;;;3.53;;
78648;SDS011;67962;47.310;9.642;2023-06-22T01:15:29;12.10;;;3.65;;
78648;SDS011;67962;47.310;9.642;2023-06-22T01:17:58;9.45;;;3.60;;
78648;SDS011;67962;47.310;9.642;2023-06-22T01:20:27;12.32;;;3.40;;
78648;SDS011;67962;47.310;9.642;2023-06-22T01:25:42;10.43;;;3.50;;
78648;SDS011;67962;47.310;9.642;2023-06-22T01:30:49;7.72;;;3.70;;
78648;SDS011;67962;47.310;9.642;2023-06-22T01:33:28;15.20;;;3.75;;
78648;SDS011;67962;47.310;9.642;2023-06-22T01:35:55;11.13;;;3.72;;
78648;SDS011;67962;47.310;9.642;2023-06-22T01:38:21;14.05;;;3.70;;
78648;SDS011;67962;47.310;9.642;2023-06-22T01:40:47;10.35;;;3.63;;
78648;SDS011;67962;47.310;9.642;2023-06-22T01:43:14;11.60;;;3.50;;
78648;SDS011;67962;47.310;9.642;2023-06-22T01:45:40;12.35;;;3.60;;
78648;SDS011;67962;47.310;9.642;2023-06-22T01:48:06;11.02;;;3.50;;
78648;SDS011;67962;47.310;9.642;2023-06-22T01:50:32;8.65;;;3.70;;
78648;SDS011;67962;47.310;9.642;2023-06-22T01:52:58;7.72;;;3.40;;
78648;SDS011;67962;47.310;9.642;2023-06-22T01:55:24;9.32;;;3.15;;
78648;SDS011;67962;47.310;9.642;2023-06-22T01:57:49;11.48;;;4.03;;
78648;SDS011;67962;47.310;9.642;2023-06-22T02:00:18;11.98;;;3.83;;
78648;SDS011;67962;47.310;9.642;2023-06-22T02:02:57;9.25;;;3.88;;
78648;SDS011;67962;47.310;9.642;2023-06-22T02:05:28;13.15;;;4.10;;
78648;SDS011;67962;47.310;9.642;2023-06-22T02:08:09;11.02;;;3.40;;
78648;SDS011;67962;47.310;9.642;2023-06-22T02:10:47;11.77;;;3.40;;
78648;SDS011;67962;47.310;9.642;2023-06-22T02:13:14;9.35;;;3.50;;
78648;SDS011;67962;47.310;9.642;2023-06-22T02:15:41;10.63;;;3.70;;
78648;SDS011;67962;47.310;9.642;2023-06-22T02:18:07;18.27;;;3.72;;
78648;SDS011;67962;47.310;9.642;2023-06-22T02:20:36;9.68;;;4.15;;
78648;SDS011;67962;47.310;9.642;2023-06-22T02:23:02;9.85;;;3.90;;
78648;SDS011;67962;47.310;9.642;2023-06-22T02:25:28;17.15;;;3.70;;
78648;SDS011;67962;47.310;9.642;2023-06-22T02:27:53;8.20;;;3.92;;
78648;SDS011;67962;47.310;9.642;2023-06-22T02:30:19;8.15;;;3.35;;
78648;SDS011;67962;47.310;9.642;2023-06-22T02:32:45;11.75;;;3.70;;
78648;SDS011;67962;47.310;9.642;2023-06-22T02:35:10;13.13;;;3.50;;
78648;SDS011;67962;47.310;9.642;2023-06-22T02:37:37;9.80;;;3.33;;
78648;SDS011;67962;47.310;9.642;2023-06-22T02:40:09;15.27;;;3.72;;
78648;SDS011;67962;47.310;9.642;2023-06-22T02:42:36;14.77;;;3.83;;
78648;SDS011;67962;47.310;9.642;2023-06-22T02:45:03;8.93;;;3.63;;
78648;SDS011;67962;47.310;9.642;2023-06-22T02:47:29;14.50;;;4.28;;
78648;SDS011;67962;47.310;9.642;2023-06-22T02:49:54;57.65;;;4.82;;
78648;SDS011;67962;47.310;9.642;2023-06-22T02:52:20;104.70;;;8.20;;
78648;SDS011;67962;47.310;9.642;2023-06-22T02:54:46;44.58;;;5.63;;
78648;SDS011;67962;47.310;9.642;2023-06-22T02:57:11;31.42;;;4.85;;
78648;SDS011;67962;47.310;9.642;2023-06-22T02:59:39;16.83;;;3.00;;
78648;SDS011;67962;47.310;9.642;2023-06-22T03:02:06;7.80;;;2.85;;
78648;SDS011;67962;47.310;9.642;2023-06-22T03:04:33;13.13;;;2.40;;
78648;SDS011;67962;47.310;9.642;2023-06-22T03:06:59;24.60;;;3.50;;
78648;SDS011;67962;47.310;9.642;2023-06-22T03:09:26;7.80;;;2.40;;
78648;SDS011;67962;47.310;9.642;2023-06-22T03:11:53;73.45;;;4.53;;
78648;SDS011;67962;47.310;9.642;2023-06-22T03:14:19;5.07;;;2.20;;
78648;SDS011;67962;47.310;9.642;2023-06-22T03:16:45;3.80;;;2.10;;
78648;SDS011;67962;47.310;9.642;2023-06-22T03:19:11;5.55;;;2.05;;
78648;SDS011;67962;47.310;9.642;2023-06-22T03:21:37;3.70;;;2.15;;
78648;SDS011;67962;47.310;9.642;2023-06-22T03:24:04;9.45;;;2.28;;
78648;SDS011;67962;47.310;9.642;2023-06-22T03:26:30;7.22;;;2.30;;
78648;SDS011;67962;47.310;9.642;2023-06-22T03:28:56;14.10;;;2.40;;
78648;SDS011;67962;47.310;9.642;2023-06-22T03:31:22;4.80;;;2.17;;
78648;SDS011;67962;47.310;9.642;2023-06-22T03:33:48;21.40;;;2.28;;
78648;SDS011;67962;47.310;9.642;2023-06-22T03:36:15;5.60;;;1.95;;
78648;SDS011;67962;47.310;9.642;2023-06-22T03:38:44;3.78;;;2.35;;
78648;SDS011;67962;47.310;9.642;2023-06-22T03:41:10;8.73;;;2.45;;
78648;SDS011;67962;47.310;9.642;2023-06-22T03:43:36;7.60;;;1.88;;
78648;SDS011;67962;47.310;9.642;2023-06-22T03:46:02;5.15;;;2.30;;
78648;SDS011;67962;47.310;9.642;2023-06-22T03:48:27;2.50;;;1.67;;
78648;SDS011;67962;47.310;9.642;2023-06-22T03:50:53;6.80;;;2.33;;
78648;SDS011;67962;47.310;9.642;2023-06-22T03:53:19;2.60;;;1.67;;
78648;SDS011;67962;47.310;9.642;2023-06-22T03:55:48;8.07;;;2.20;;
78648;SDS011;67962;47.310;9.642;2023-06-22T03:58:15;8.57;;;2.25;;
78648;SDS011;67962;47.310;9.642;2023-06-22T04:00:41;4.40;;;2.05;;
78648;SDS011;67962;47.310;9.642;2023-06-22T04:03:07;4.07;;;2.08;;
78648;SDS011;67962;47.310;9.642;2023-06-22T04:05:33;4.65;;;2.20;;
78648;SDS011;67962;47.310;9.642;2023-06-22T04:07:59;4.45;;;1.98;;
78648;SDS011;67962;47.310;9.642;2023-06-22T04:10:24;5.20;;;2.53;;
78648;SDS011;67962;47.310;9.642;2023-06-22T04:12:50;6.80;;;2.78;;
78648;SDS011;67962;47.310;9.642;2023-06-22T04:15:16;3.33;;;1.98;;
78648;SDS011;67962;47.310;9.642;2023-06-22T04:17:41;5.45;;;2.17;;
78648;SDS011;67962;47.310;9.642;2023-06-22T04:20:07;3.72;;;2.45;;
78648;SDS011;67962;47.310;9.642;2023-06-22T04:22:33;4.25;;;2.55;;
78648;SDS011;67962;47.310;9.642;2023-06-22T04:24:59;5.00;;;1.95;;
78648;SDS011;67962;47.310;9.642;2023-06-22T04:27:24;8.80;;;2.42;;
78648;SDS011;67962;47.310;9.642;2023-06-22T04:29:50;5.65;;;2.40;;
78648;SDS011;67962;47.310;9.642;2023-06-22T04:32:16;5.47;;;2.25;;
78648;SDS011;67962;47.310;9.642;2023-06-22T04:34:42;3.13;;;1.92;;
78648;SDS011;67962;47.310;9.642;2023-06-22T04:37:08;3.90;;;2.20;;
78648;SDS011;67962;47.310;9.642;2023-06-22T04:39:34;6.65;;;2.38;;
78648;SDS011;67962;47.310;9.642;2023-06-22T04:42:01;4.93;;;2.38;;
78648;SDS011;67962;47.310;9.642;2023-06-22T04:44:26;7.03;;;2.40;;
78648;SDS011;67962;47.310;9.642;2023-06-22T04:46:53;3.85;;;2.30;;
78648;SDS011;67962;47.310;9.642;2023-06-22T04:49:25;4.38;;;2.50;;
78648;SDS011;67962;47.310;9.642;2023-06-22T04:52:07;4.40;;;2.63;;
78648;SDS011;67962;47.310;9.642;2023-06-22T04:54:35;3.72;;;2.60;;
78648;SDS011;67962;47.310;9.642;2023-06-22T04:57:02;4.40;;;2.22;;
78648;SDS011;67962;47.310;9.642;2023-06-22T04:59:30;6.82;;;2.72;;
78648;SDS011;67962;47.310;9.642;2023-06-22T05:02:00;4.00;;;2.63;;
78648;SDS011;67962;47.310;9.642;2023-06-22T05:04:27;6.68;;;2.80;;
78648;SDS011;67962;47.310;9.642;2023-06-22T05:06:59;4.60;;;2.40;;
78648;SDS011;67962;47.310;9.642;2023-06-22T05:09:25;3.05;;;2.03;;
78648;SDS011;67962;47.310;9.642;2023-06-22T05:11:51;4.80;;;2.65;;
78648;SDS011;67962;47.310;9.642;2023-06-22T05:14:17;6.28;;;2.50;;
78648;SDS011;67962;47.310;9.642;2023-06-22T05:16:43;5.60;;;2.70;;
78648;SDS011;67962;47.310;9.642;2023-06-22T05:19:10;5.38;;;2.25;;
78648;SDS011;67962;47.310;9.642;2023-06-22T05:21:37;5.93;;;2.63;;
78648;SDS011;67962;47.310;9.642;2023-06-22T05:24:03;5.18;;;2.95;;
78648;SDS011;67962;47.310;9.642;2023-06-22T05:26:33;4.60;;;2.60;;
78648;SDS011;67962;47.310;9.642;2023-06-22T05:29:00;4.50;;;2.65;;
78648;SDS011;67962;47.310;9.642;2023-06-22T05:31:27;4.20;;;2.83;;
78648;SDS011;67962;47.310;9.642;2023-06-22T05:33:54;5.25;;;2.92;;
78648;SDS011;67962;47.310;9.642;2023-06-22T05:36:20;4.35;;;2.65;;
78648;SDS011;67962;47.310;9.642;2023-06-22T05:38:49;7.25;;;3.25;;
78648;SDS011;67962;47.310;9.642;2023-06-22T05:41:16;3.70;;;2.42;;
78648;SDS011;67962;47.310;9.642;2023-06-22T05:43:41;5.60;;;2.72;;
78648;SDS011;67962;47.310;9.642;2023-06-22T05:46:07;6.00;;;2.75;;
78648;SDS011;67962;47.310;9.642;2023-06-22T05:48:33;7.28;;;2.88;;
78648;SDS011;67962;47.310;9.642;2023-06-22T05:50:58;6.35;;;2.95;;
78648;SDS011;67962;47.310;9.642;2023-06-22T05:53:24;4.75;;;2.60;;
78648;SDS011;67962;47.310;9.642;2023-06-22T05:55:50;5.10;;;3.08;;
78648;SDS011;67962;47.310;9.642;2023-06-22T05:58:16;4.20;;;2.53;;
78648;SDS011;67962;47.310;9.642;2023-06-22T06:00:41;5.13;;;2.90;;
78648;SDS011;67962;47.310;9.642;2023-06-22T06:03:08;6.88;;;3.10;;
78648;SDS011;67962;47.310;9.642;2023-06-22T06:05:35;5.38;;;3.08;;
78648;SDS011;67962;47.310;9.642;2023-06-22T06:08:01;5.35;;;3.00;;
78648;SDS011;67962;47.310;9.642;2023-06-22T06:10:28;3.92;;;2.50;;
78648;SDS011;67962;47.310;9.642;2023-06-22T06:12:54;5.38;;;2.83;;
78648;SDS011;67962;47.310;9.642;2023-06-22T06:15:20;3.97;;;2.95;;
78648;SDS011;67962;47.310;9.642;2023-06-22T06:17:50;5.65;;;2.88;;
78648;SDS011;67962;47.310;9.642;2023-06-22T06:20:21;6.40;;;3.38;;
78648;SDS011;67962;47.310;9.642;2023-06-22T06:22:48;5.45;;;3.00;;
78648;SDS011;67962;47.310;9.642;2023-06-22T06:25:14;8.93;;;3.47;;
78648;SDS011;67962;47.310;9.642;2023-06-22T06:27:44;8.02;;;3.05;;
78648;SDS011;67962;47.310;9.642;2023-06-22T06:30:11;4.50;;;2.80;;
78648;SDS011;67962;47.310;9.642;2023-06-22T06:32:38;7.35;;;2.65;;
78648;SDS011;67962;47.310;9.642;2023-06-22T06:35:08;4.30;;;2.78;;
78648;SDS011;67962;47.310;9.642;2023-06-22T06:37:38;4.25;;;2.70;;
78648;SDS011;67962;47.310;9.642;2023-06-22T06:40:06;5.10;;;2.83;;
78648;SDS011;67962;47.310;9.642;2023-06-22T06:42:35;6.03;;;2.95;;
78648;SDS011;67962;47.310;9.642;2023-06-22T06:45:04;5.93;;;3.00;;
78648;SDS011;67962;47.310;9.642;2023-06-22T06:47:30;6.40;;;3.08;;
78648;SDS011;67962;47.310;9.642;2023-06-22T06:49:56;5.55;;;3.40;;
78648;SDS011;67962;47.310;9.642;2023-06-22T06:52:21;4.30;;;2.88;;
78648;SDS011;67962;47.310;9.642;2023-06-22T06:54:47;4.82;;;2.75;;
78648;SDS011;67962;47.310;9.642;2023-06-22T06:57:13;4.40;;;2.80;;
78648;SDS011;67962;47.310;9.642;2023-06-22T06:59:40;3.70;;;2.72;;
78648;SDS011;67962;47.310;9.642;2023-06-22T07:02:06;4.65;;;3.10;;
78648;SDS011;67962;47.310;9.642;2023-06-22T07:04:32;5.70;;;2.67;;
78648;SDS011;67962;47.310;9.642;2023-06-22T07:06:58;4.85;;;2.47;;
78648;SDS011;67962;47.310;9.642;2023-06-22T07:09:26;4.63;;;2.65;;
78648;SDS011;67962;47.310;9.642;2023-06-22T07:11:51;5.80;;;3.15;;
78648;SDS011;67962;47.310;9.642;2023-06-22T07:14:17;8.55;;;3.15;;
78648;SDS011;67962;47.310;9.642;2023-06-22T07:16:43;5.65;;;2.83;;
78648;SDS011;67962;47.310;9.642;2023-06-22T07:19:10;5.45;;;3.38;;
78648;SDS011;67962;47.310;9.642;2023-06-22T07:21:36;6.47;;;2.90;;
78648;SDS011;67962;47.310;9.642;2023-06-22T07:24:02;5.57;;;2.88;;
78648;SDS011;67962;47.310;9.642;2023-06-22T07:26:30;6.80;;;3.20;;
78648;SDS011;67962;47.310;9.642;2023-06-22T07:28:56;5.63;;;2.95;;
78648;SDS011;67962;47.310;9.642;2023-06-22T07:31:23;4.40;;;2.50;;
78648;SDS011;67962;47.310;9.642;2023-06-22T07:33:49;4.20;;;2.30;;
78648;SDS011;67962;47.310;9.642;2023-06-22T07:36:16;6.53;;;2.25;;
78648;SDS011;67962;47.310;9.642;2023-06-22T07:38:42;4.25;;;2.63;;
78648;SDS011;67962;47.310;9.642;2023-06-22T07:41:08;4.10;;;2.28;;
78648;SDS011;67962;47.310;9.642;2023-06-22T07:43:33;4.63;;;2.50;;
78648;SDS011;67962;47.310;9.642;2023-06-22T07:46:02;4.35;;;2.30;;
78648;SDS011;67962;47.310;9.642;2023-06-22T07:48:28;4.93;;;2.20;;
78648;SDS011;67962;47.310;9.642;2023-06-22T07:50:54;2.97;;;2.10;;
78648;SDS011;67962;47.310;9.642;2023-06-22T07:53:20;6.88;;;2.70;;
78648;SDS011;67962;47.310;9.642;2023-06-22T07:55:47;3.20;;;2.25;;
78648;SDS011;67962;47.310;9.642;2023-06-22T07:58:13;4.65;;;2.20;;
78648;SDS011;67962;47.310;9.642;2023-06-22T08:00:38;4.22;;;2.42;;
78648;SDS011;67962;47.310;9.642;2023-06-22T08:03:04;4.32;;;2.75;;
78648;SDS011;67962;47.310;9.642;2023-06-22T08:05:30;4.07;;;2.47;;
78648;SDS011;67962;47.310;9.642;2023-06-22T08:07:56;4.50;;;2.60;;
78648;SDS011;67962;47.310;9.642;2023-06-22T08:10:22;4.93;;;2.58;;
78648;SDS011;67962;47.310;9.642;2023-06-22T08:12:48;3.38;;;2.25;;
78648;SDS011;67962;47.310;9.642;2023-06-22T08:15:14;10.55;;;3.60;;
78648;SDS011;67962;47.310;9.642;2023-06-22T08:17:39;5.20;;;2.50;;
78648;SDS011;67962;47.310;9.642;2023-06-22T08:20:06;4.07;;;2.13;;
78648;SDS011;67962;47.310;9.642;2023-06-22T08:22:39;5.18;;;2.35;;
78648;SDS011;67962;47.310;9.642;2023-06-22T08:25:06;7.78;;;2.80;;
78648;SDS011;67962;47.310;9.642;2023-06-22T08:27:32;5.97;;;2.22;;
78648;SDS011;67962;47.310;9.642;2023-06-22T08:29:58;3.97;;;2.40;;
78648;SDS011;67962;47.310;9.642;2023-06-22T08:32:25;3.15;;;2.35;;
78648;SDS011;67962;47.310;9.642;2023-06-22T08:34:52;4.53;;;2.92;;
78648;SDS011;67962;47.310;9.642;2023-06-22T08:37:22;4.22;;;2.28;;
78648;SDS011;67962;47.310;9.642;2023-06-22T08:39:55;7.43;;;2.53;;
78648;SDS011;67962;47.310;9.642;2023-06-22T08:42:22;5.53;;;3.25;;
78648;SDS011;67962;47.310;9.642;2023-06-22T08:44:49;7.70;;;3.42;;
78648;SDS011;67962;47.310;9.642;2023-06-22T08:47:15;4.05;;;2.60;;
78648;SDS011;67962;47.310;9.642;2023-06-22T08:49:40;5.32;;;2.92;;
78648;SDS011;67962;47.310;9.642;2023-06-22T08:52:06;4.40;;;2.50;;
78648;SDS011;67962;47.310;9.642;2023-06-22T08:54:32;6.40;;;2.78;;
78648;SDS011;67962;47.310;9.642;2023-06-22T08:56:59;9.13;;;3.38;;
78648;SDS011;67962;47.310;9.642;2023-06-22T08:59:25;6.95;;;4.38;;
78648;SDS011;67962;47.310;9.642;2023-06-22T09:01:51;9.77;;;4.50;;
78648;SDS011;67962;47.310;9.642;2023-06-22T09:04:17;8.32;;;4.82;;
78648;SDS011;67962;47.310;9.642;2023-06-22T09:06:42;8.95;;;3.67;;
78648;SDS011;67962;47.310;9.642;2023-06-22T09:09:10;7.28;;;4.07;;
78648;SDS011;67962;47.310;9.642;2023-06-22T09:11:37;6.65;;;3.20;;
78648;SDS011;67962;47.310;9.642;2023-06-22T09:14:03;7.18;;;3.80;;
78648;SDS011;67962;47.310;9.642;2023-06-22T09:16:29;11.38;;;4.53;;
78648;SDS011;67962;47.310;9.642;2023-06-22T09:18:55;6.45;;;3.45;;
78648;SDS011;67962;47.310;9.642;2023-06-22T09:21:21;10.45;;;3.90;;
78648;SDS011;67962;47.310;9.642;2023-06-22T09:23:47;7.90;;;3.60;;
78648;SDS011;67962;47.310;9.642;2023-06-22T09:26:16;8.48;;;3.83;;
78648;SDS011;67962;47.310;9.642;2023-06-22T09:28:42;4.18;;;2.60;;
78648;SDS011;67962;47.310;9.642;2023-06-22T09:31:08;9.38;;;3.10;;
78648;SDS011;67962;47.310;9.642;2023-06-22T09:33:35;6.22;;;3.20;;
78648;SDS011;67962;47.310;9.642;2023-06-22T09:36:01;5.82;;;3.05;;
78648;SDS011;67962;47.310;9.642;2023-06-22T09:38:26;7.10;;;3.00;;
78648;SDS011;67962;47.310;9.642;2023-06-22T09:40:52;5.80;;;3.22;;
78648;SDS011;67962;47.310;9.642;2023-06-22T09:43:18;6.93;;;3.08;;
78648;SDS011;67962;47.310;9.642;2023-06-22T09:45:43;5.18;;;2.92;;
78648;SDS011;67962;47.310;9.642;2023-06-22T09:48:09;6.22;;;3.30;;
78648;SDS011;67962;47.310;9.642;2023-06-22T09:50:35;6.25;;;3.42;;
78648;SDS011;67962;47.310;9.642;2023-06-22T09:53:02;7.10;;;4.00;;
78648;SDS011;67962;47.310;9.642;2023-06-22T09:55:28;5.10;;;3.33;;
78648;SDS011;67962;47.310;9.642;2023-06-22T09:57:53;6.85;;;3.70;;
78648;SDS011;67962;47.310;9.642;2023-06-22T10:00:20;7.05;;;3.50;;
78648;SDS011;67962;47.310;9.642;2023-06-22T10:02:47;8.43;;;3.40;;
78648;SDS011;67962;47.310;9.642;2023-06-22T10:05:13;9.93;;;3.90;;
78648;SDS011;67962;47.310;9.642;2023-06-22T10:07:39;9.10;;;3.70;;
78648;SDS011;67962;47.310;9.642;2023-06-22T10:10:08;6.65;;;3.45;;
78648;SDS011;67962;47.310;9.642;2023-06-22T10:12:34;6.78;;;3.17;;
78648;SDS011;67962;47.310;9.642;2023-06-22T10:15:00;8.15;;;3.60;;
78648;SDS011;67962;47.310;9.642;2023-06-22T10:17:25;7.57;;;3.70;;
78648;SDS011;67962;47.310;9.642;2023-06-22T10:19:51;7.70;;;3.47;;
78648;SDS011;67962;47.310;9.642;2023-06-22T10:22:17;8.25;;;3.45;;
78648;SDS011;67962;47.310;9.642;2023-06-22T10:24:43;6.05;;;3.28;;
78648;SDS011;67962;47.310;9.642;2023-06-22T10:27:12;6.10;;;3.33;;
78648;SDS011;67962;47.310;9.642;2023-06-22T10:29:38;6.78;;;3.40;;
78648;SDS011;67962;47.310;9.642;2023-06-22T10:32:04;4.30;;;2.70;;
78648;SDS011;67962;47.310;9.642;2023-06-22T10:34:30;5.35;;;2.95;;
78648;SDS011;67962;47.310;9.642;2023-06-22T10:36:56;6.20;;;3.30;;
78648;SDS011;67962;47.310;9.642;2023-06-22T10:39:21;5.22;;;2.67;;
78648;SDS011;67962;47.310;9.642;2023-06-22T10:41:47;6.57;;;3.13;;
78648;SDS011;67962;47.310;9.642;2023-06-22T10:44:13;5.05;;;2.88;;
78648;SDS011;67962;47.310;9.642;2023-06-22T10:46:39;6.13;;;2.78;;
78648;SDS011;67962;47.310;9.642;2023-06-22T10:49:04;7.53;;;2.97;;
78648;SDS011;67962;47.310;9.642;2023-06-22T10:51:30;5.90;;;3.10;;
78648;SDS011;67962;47.310;9.642;2023-06-22T10:53:57;6.45;;;2.88;;
78648;SDS011;67962;47.310;9.642;2023-06-22T10:56:22;5.95;;;2.90;;
78648;SDS011;67962;47.310;9.642;2023-06-22T10:58:48;5.57;;;2.70;;
78648;SDS011;67962;47.310;9.642;2023-06-22T11:01:14;7.25;;;2.65;;
78648;SDS011;67962;47.310;9.642;2023-06-22T11:03:40;10.07;;;3.35;;
78648;SDS011;67962;47.310;9.642;2023-06-22T11:06:06;8.52;;;3.40;;
78648;SDS011;67962;47.310;9.642;2023-06-22T11:08:32;6.55;;;2.88;;
78648;SDS011;67962;47.310;9.642;2023-06-22T11:10:57;3.97;;;2.80;;
78648;SDS011;67962;47.310;9.642;2023-06-22T11:13:23;7.80;;;2.83;;
78648;SDS011;67962;47.310;9.642;2023-06-22T11:15:50;6.57;;;3.47;;
78648;SDS011;67962;47.310;9.642;2023-06-22T11:18:15;6.28;;;3.40;;
78648;SDS011;67962;47.310;9.642;2023-06-22T11:20:41;5.38;;;3.00;;
78648;SDS011;67962;47.310;9.642;2023-06-22T11:23:07;7.53;;;3.08;;
78648;SDS011;67962;47.310;9.642;2023-06-22T11:25:33;6.90;;;3.22;;
78648;SDS011;67962;47.310;9.642;2023-06-22T11:28:03;6.05;;;3.38;;
78648;SDS011;67962;47.310;9.642;2023-06-22T11:30:29;5.60;;;3.17;;
78648;SDS011;67962;47.310;9.642;2023-06-22T11:32:56;7.95;;;3.45;;
78648;SDS011;67962;47.310;9.642;2023-06-22T11:35:25;6.13;;;2.72;;
78648;SDS011;67962;47.310;9.642;2023-06-22T11:37:51;10.40;;;3.13;;
78648;SDS011;67962;47.310;9.642;2023-06-22T11:40:17;5.93;;;3.22;;
78648;SDS011;67962;47.310;9.642;2023-06-22T11:42:42;6.30;;;3.20;;
78648;SDS011;67962;47.310;9.642;2023-06-22T11:45:08;6.32;;;3.80;;
78648;SDS011;67962;47.310;9.642;2023-06-22T11:47:34;5.07;;;3.45;;
78648;SDS011;67962;47.310;9.642;2023-06-22T11:50:01;6.53;;;2.95;;
78648;SDS011;67962;47.310;9.642;2023-06-22T11:52:27;4.72;;;3.13;;
78648;SDS011;67962;47.310;9.642;2023-06-22T11:54:53;9.35;;;3.60;;
78648;SDS011;67962;47.310;9.642;2023-06-22T11:57:18;6.32;;;3.35;;
78648;SDS011;67962;47.310;9.642;2023-06-22T11:59:44;4.55;;;3.40;;
78648;SDS011;67962;47.310;9.642;2023-06-22T12:02:10;7.95;;;3.72;;
78648;SDS011;67962;47.310;9.642;2023-06-22T12:04:35;7.53;;;4.28;;
78648;SDS011;67962;47.310;9.642;2023-06-22T12:07:01;6.00;;;3.60;;
78648;SDS011;67962;47.310;9.642;2023-06-22T12:09:27;6.70;;;3.85;;
78648;SDS011;67962;47.310;9.642;2023-06-22T12:11:53;8.27;;;3.63;;
78648;SDS011;67962;47.310;9.642;2023-06-22T12:14:18;9.40;;;3.55;;
78648;SDS011;67962;47.310;9.642;2023-06-22T12:16:44;7.10;;;3.60;;
78648;SDS011;67962;47.310;9.642;2023-06-22T12:19:10;9.07;;;3.40;;
78648;SDS011;67962;47.310;9.642;2023-06-22T12:21:37;5.30;;;3.22;;
78648;SDS011;67962;47.310;9.642;2023-06-22T12:24:03;8.50;;;3.80;;
78648;SDS011;67962;47.310;9.642;2023-06-22T12:26:28;5.80;;;3.38;;
78648;SDS011;67962;47.310;9.642;2023-06-22T12:28:54;7.53;;;3.63;;
78648;SDS011;67962;47.310;9.642;2023-06-22T12:31:20;5.75;;;3.30;;
78648;SDS011;67962;47.310;9.642;2023-06-22T12:33:45;7.38;;;3.40;;
78648;SDS011;67962;47.310;9.642;2023-06-22T12:36:11;8.88;;;3.13;;
78648;SDS011;67962;47.310;9.642;2023-06-22T12:38:37;6.45;;;3.13;;
78648;SDS011;67962;47.310;9.642;2023-06-22T12:41:02;7.70;;;3.45;;
78648;SDS011;67962;47.310;9.642;2023-06-22T12:43:28;7.30;;;4.10;;
78648;SDS011;67962;47.310;9.642;2023-06-22T12:45:53;9.23;;;3.90;;
78648;SDS011;67962;47.310;9.642;2023-06-22T12:48:19;7.00;;;4.00;;
78648;SDS011;67962;47.310;9.642;2023-06-22T12:50:45;8.10;;;3.97;;
78648;SDS011;67962;47.310;9.642;2023-06-22T12:53:12;8.23;;;3.65;;
78648;SDS011;67962;47.310;9.642;2023-06-22T12:55:38;7.30;;;3.33;;
78648;SDS011;67962;47.310;9.642;2023-06-22T12:58:04;8.70;;;4.03;;
78648;SDS011;67962;47.310;9.642;2023-06-22T13:00:29;5.80;;;3.13;;
78648;SDS011;67962;47.310;9.642;2023-06-22T13:02:55;5.63;;;3.05;;
78648;SDS011;67962;47.310;9.642;2023-06-22T13:05:21;11.07;;;4.10;;
78648;SDS011;67962;47.310;9.642;2023-06-22T13:07:46;6.95;;;3.50;;
78648;SDS011;67962;47.310;9.642;2023-06-22T13:10:12;6.40;;;3.50;;
78648;SDS011;67962;47.310;9.642;2023-06-22T13:12:38;5.90;;;3.80;;
78648;SDS011;67962;47.310;9.642;2023-06-22T13:15:04;7.22;;;3.50;;
78648;SDS011;67962;47.310;9.642;2023-06-22T13:17:30;5.63;;;3.40;;
78648;SDS011;67962;47.310;9.642;2023-06-22T13:19:55;11.00;;;3.85;;
78648;SDS011;67962;47.310;9.642;2023-06-22T13:22:28;6.95;;;3.50;;
78648;SDS011;67962;47.310;9.642;2023-06-22T13:25:08;6.05;;;3.35;;
78648;SDS011;67962;47.310;9.642;2023-06-22T13:27:41;9.18;;;3.40;;
78648;SDS011;67962;47.310;9.642;2023-06-22T13:30:07;8.50;;;3.28;;
78648;SDS011;67962;47.310;9.642;2023-06-22T13:32:34;7.80;;;3.17;;
78648;SDS011;67962;47.310;9.642;2023-06-22T13:35:00;7.80;;;3.08;;
78648;SDS011;67962;47.310;9.642;2023-06-22T13:37:25;6.55;;;2.58;;
78648;SDS011;67962;47.310;9.642;2023-06-22T13:39:52;4.05;;;2.63;;
78648;SDS011;67962;47.310;9.642;2023-06-22T13:42:18;7.43;;;2.65;;
78648;SDS011;67962;47.310;9.642;2023-06-22T13:44:43;8.27;;;2.53;;
78648;SDS011;67962;47.310;9.642;2023-06-22T13:47:09;5.80;;;2.30;;
78648;SDS011;67962;47.310;9.642;2023-06-22T13:49:35;5.53;;;2.22;;
78648;SDS011;67962;47.310;9.642;2023-06-22T13:52:00;6.68;;;2.03;;
78648;SDS011;67962;47.310;9.642;2023-06-22T13:54:28;5.45;;;2.45;;
78648;SDS011;67962;47.310;9.642;2023-06-22T13:56:54;6.38;;;2.63;;
78648;SDS011;67962;47.310;9.642;2023-06-22T13:59:19;7.72;;;1.80;;
78648;SDS011;67962;47.310;9.642;2023-06-22T14:01:46;5.75;;;2.03;;
78648;SDS011;67962;47.310;9.642;2023-06-22T14:04:11;6.95;;;2.50;;
78648;SDS011;67962;47.310;9.642;2023-06-22T14:06:37;7.75;;;2.85;;
78648;SDS011;67962;47.310;9.642;2023-06-22T14:09:03;5.18;;;2.58;;
78648;SDS011;67962;47.310;9.642;2023-06-22T14:11:29;8.63;;;2.00;;
78648;SDS011;67962;47.310;9.642;2023-06-22T14:13:54;7.53;;;2.58;;
78648;SDS011;67962;47.310;9.642;2023-06-22T14:16:20;4.75;;;2.47;;
78648;SDS011;67962;47.310;9.642;2023-06-22T14:18:46;6.55;;;2.60;;
78648;SDS011;67962;47.310;9.642;2023-06-22T14:21:11;6.55;;;2.33;;
78648;SDS011;67962;47.310;9.642;2023-06-22T14:23:37;4.47;;;2.55;;
78648;SDS011;67962;47.310;9.642;2023-06-22T14:26:03;3.17;;;2.28;;
78648;SDS011;67962;47.310;9.642;2023-06-22T14:28:29;4.78;;;2.67;;
78648;SDS011;67962;47.310;9.642;2023-06-22T14:30:54;6.68;;;2.60;;
78648;SDS011;67962;47.310;9.642;2023-06-22T14:33:21;4.30;;;2.50;;
78648;SDS011;67962;47.310;9.642;2023-06-22T14:35:47;7.72;;;2.55;;
78648;SDS011;67962;47.310;9.642;2023-06-22T14:38:13;3.97;;;2.30;;
78648;SDS011;67962;47.310;9.642;2023-06-22T14:40:38;8.10;;;2.75;;
78648;SDS011;67962;47.310;9.642;2023-06-22T14:43:04;3.50;;;2.13;;
78648;SDS011;67962;47.310;9.642;2023-06-22T14:45:30;5.95;;;2.45;;
78648;SDS011;67962;47.310;9.642;2023-06-22T14:47:55;7.93;;;2.30;;
78648;SDS011;67962;47.310;9.642;2023-06-22T14:50:21;4.88;;;2.33;;